Time;durP1;ratioP1;P1;durP2;ratioP2;P2;SDS_P1;SDS_P2;PMS_P1;PMS_P2;Temp;Humidity;BMP_temperature;BMP_pressure;BME280_temperature;BME280_humidity;BME280_pressure;Samples;Min_cycle;Max_cycle;Signal;HPM_P1;HPM_P2
2022/06/07 00:00:43;;;;;;;4.30;3.77;;;;;;;;;;5072850;28;20835;-73
2022/06/07 00:03:10;;;;;;;4.07;3.67;;;;;;;;;;5075652;28;20454;-72
2022/06/07 00:05:40;;;;;;;5.80;4.07;;;;;;;;;;5075339;28;20451;-72
2022/06/07 00:08:07;;;;;;;6.50;5.20;;;;;;;;;;5075615;28;20459;-72
2022/06/07 00:10:36;;;;;;;6.20;4.03;;;;;;;;;;5075672;28;20832;-73
2022/06/07 00:13:03;;;;;;;4.57;3.87;;;;;;;;;;5075484;28;20459;-73
2022/06/07 00:15:31;;;;;;;4.20;3.40;;;;;;;;;;5075516;28;20452;-73
2022/06/07 00:17:58;;;;;;;6.03;5.53;;;;;;;;;;5075607;28;20448;-72
2022/06/07 00:20:25;;;;;;;4.80;3.90;;;;;;;;;;5075302;28;20969;-72
2022/06/07 00:22:52;;;;;;;4.73;4.20;;;;;;;;;;5075481;28;20447;-72
2022/06/07 00:25:19;;;;;;;4.53;4.13;;;;;;;;;;5075258;28;20444;-72
2022/06/07 00:27:48;;;;;;;3.77;3.47;;;;;;;;;;5075235;28;20578;-73
2022/06/07 00:30:15;;;;;;;9.10;4.60;;;;;;;;;;5075033;28;20472;-72
2022/06/07 00:32:43;;;;;;;6.87;4.43;;;;;;;;;;5075362;28;20456;-72
2022/06/07 00:35:10;;;;;;;3.77;3.47;;;;;;;;;;5074926;28;20462;-72
2022/06/07 00:37:37;;;;;;;14.23;4.20;;;;;;;;;;5075012;28;20847;-72
2022/06/07 00:40:05;;;;;;;8.20;4.67;;;;;;;;;;5074975;28;20476;-73
2022/06/07 00:42:32;;;;;;;7.20;4.70;;;;;;;;;;5074931;28;20451;-72
2022/06/07 00:45:01;;;;;;;5.30;4.80;;;;;;;;;;5074837;28;21014;-72
2022/06/07 00:47:29;;;;;;;5.13;4.63;;;;;;;;;;5074870;28;20484;-72
2022/06/07 00:49:57;;;;;;;5.10;4.20;;;;;;;;;;5074898;28;20949;-72
2022/06/07 00:52:25;;;;;;;6.33;4.30;;;;;;;;;;5074361;28;20463;-73
2022/06/07 00:54:52;;;;;;;7.87;4.27;;;;;;;;;;5074620;28;20921;-72
2022/06/07 00:57:20;;;;;;;4.20;3.80;;;;;;;;;;5074652;28;20452;-72
2022/06/07 00:59:47;;;;;;;5.03;4.63;;;;;;;;;;5074734;28;20460;-72
2022/06/07 01:02:15;;;;;;;4.87;4.37;;;;;;;;;;5074586;28;20451;-72
2022/06/07 01:04:42;;;;;;;6.93;4.70;;;;;;;;;;5074486;28;20823;-73
2022/06/07 01:12:39;;;;;;;5.90;4.40;;;;;;;;;;5074383;28;20415;-72
2022/06/07 01:15:06;;;;;;;5.37;4.87;;;;;;;;;;5074207;28;20494;-73
2022/06/07 01:17:35;;;;;;;4.27;3.80;;;;;;;;;;5074508;28;20479;-73
2022/06/07 01:20:02;;;;;;;4.63;4.20;;;;;;;;;;5074149;28;20478;-73
2022/06/07 01:22:31;;;;;;;6.50;4.03;;;;;;;;;;5074208;28;20822;-73
2022/06/07 01:24:58;;;;;;;4.80;4.40;;;;;;;;;;5074017;28;20447;-73
2022/06/07 01:27:25;;;;;;;5.77;5.03;;;;;;;;;;5073987;28;20494;-72
2022/06/07 01:29:52;;;;;;;6.43;4.50;;;;;;;;;;5074075;28;20455;-73
2022/06/07 01:32:20;;;;;;;10.10;5.70;;;;;;;;;;5074054;28;20456;-73
2022/06/07 01:34:47;;;;;;;7.50;4.67;;;;;;;;;;5073708;28;20455;-72
2022/06/07 01:37:16;;;;;;;6.37;4.77;;;;;;;;;;5073849;28;20462;-73
2022/06/07 01:42:29;;;;;;;5.67;5.17;;;;;;;;;;5073918;28;20458;-73
2022/06/07 01:44:57;;;;;;;5.73;5.23;;;;;;;;;;5073513;28;20463;-73
2022/06/07 01:47:25;;;;;;;6.60;5.10;;;;;;;;;;5073702;28;20541;-72
2022/06/07 01:49:52;;;;;;;10.17;5.27;;;;;;;;;;5073558;28;20456;-72
2022/06/07 01:52:20;;;;;;;5.70;5.20;;;;;;;;;;5073123;28;20808;-72
2022/06/07 01:54:49;;;;;;;5.60;4.80;;;;;;;;;;5073713;28;20459;-72
2022/06/07 01:57:16;;;;;;;8.13;5.80;;;;;;;;;;5073479;28;20479;-72
2022/06/07 01:59:43;;;;;;;7.00;6.00;;;;;;;;;;5073568;28;20455;-73
2022/06/07 02:02:11;;;;;;;6.50;5.70;;;;;;;;;;5073515;28;20452;-72
2022/06/07 02:04:38;;;;;;;7.67;6.97;;;;;;;;;;5073140;28;20451;-72
2022/06/07 02:07:06;;;;;;;6.13;5.63;;;;;;;;;;5073271;28;20867;-72
2022/06/07 02:09:34;;;;;;;6.53;5.90;;;;;;;;;;5073615;28;20458;-72
2022/06/07 02:12:03;;;;;;;6.57;5.97;;;;;;;;;;5073346;28;20471;-72
2022/06/07 02:14:31;;;;;;;7.70;6.87;;;;;;;;;;5073055;28;20826;-72
2022/06/07 02:16:58;;;;;;;8.57;7.00;;;;;;;;;;5073323;28;20451;-72
2022/06/07 02:19:25;;;;;;;10.93;6.77;;;;;;;;;;5073242;28;20460;-72
2022/06/07 02:21:52;;;;;;;9.60;7.07;;;;;;;;;;5073143;28;20475;-72
2022/06/07 02:24:19;;;;;;;10.13;7.13;;;;;;;;;;5072392;28;20889;-72
2022/06/07 02:26:48;;;;;;;8.53;7.63;;;;;;;;;;5073089;28;20518;-72
2022/06/07 02:29:19;;;;;;;8.00;7.23;;;;;;;;;;5073137;28;20456;-72
2022/06/07 02:31:49;;;;;;;9.67;7.70;;;;;;;;;;5073215;28;20957;-72
2022/06/07 02:34:18;;;;;;;8.83;7.40;;;;;;;;;;5072849;28;20459;-72
2022/06/07 02:36:47;;;;;;;10.90;8.37;;;;;;;;;;5072952;28;20451;-72
2022/06/07 02:39:15;;;;;;;9.87;8.43;;;;;;;;;;5072968;28;20945;-72
2022/06/07 02:41:42;;;;;;;9.30;7.60;;;;;;;;;;5072941;28;20486;-72
2022/06/07 02:44:10;;;;;;;10.50;9.03;;;;;;;;;;5072814;28;20455;-72
2022/06/07 02:46:38;;;;;;;9.30;6.87;;;;;;;;;;5073237;28;20456;-72
2022/06/07 02:49:05;;;;;;;8.30;6.93;;;;;;;;;;5072861;28;20448;-72
2022/06/07 02:51:32;;;;;;;11.20;7.70;;;;;;;;;;5072548;28;20478;-72
2022/06/07 02:53:59;;;;;;;13.73;8.53;;;;;;;;;;5072706;28;20451;-72
2022/06/07 02:56:27;;;;;;;9.80;8.60;;;;;;;;;;5072858;28;20814;-72
2022/06/07 02:58:54;;;;;;;10.40;9.20;;;;;;;;;;5072828;28;20455;-72
2022/06/07 03:01:21;;;;;;;11.57;9.30;;;;;;;;;;5072621;28;20478;-72
2022/06/07 03:03:49;;;;;;;9.93;8.70;;;;;;;;;;5072769;28;20447;-72
2022/06/07 03:06:16;;;;;;;14.63;10.60;;;;;;;;;;5072575;28;20459;-72
2022/06/07 03:08:43;;;;;;;12.00;9.87;;;;;;;;;;5072762;28;20996;-71
2022/06/07 03:11:10;;;;;;;12.97;8.70;;;;;;;;;;5072587;28;20475;-72
2022/06/07 03:13:37;;;;;;;14.40;8.93;;;;;;;;;;5072538;28;20458;-72
2022/06/07 03:16:05;;;;;;;11.30;9.50;;;;;;;;;;5072704;28;21038;-72
2022/06/07 03:18:32;;;;;;;15.87;10.00;;;;;;;;;;5072694;28;20440;-70
2022/06/07 03:21:00;;;;;;;9.80;8.80;;;;;;;;;;5072524;28;21003;-70
2022/06/07 03:23:27;;;;;;;9.73;8.77;;;;;;;;;;5072595;28;20451;-72
2022/06/07 03:26:03;;;;;;;12.23;10.63;;;;;;;;;;5072645;28;20447;-72
2022/06/07 03:28:30;;;;;;;9.60;8.60;;;;;;;;;;5072576;28;20853;-72
2022/06/07 03:31:04;;;;;;;13.27;9.10;;;;;;;;;;5072443;28;20471;-72
2022/06/07 03:33:32;;;;;;;14.43;9.50;;;;;;;;;;5072324;28;20459;-72
2022/06/07 03:36:05;;;;;;;9.80;8.10;;;;;;;;;;5073604;28;20467;-72
2022/06/07 03:38:32;;;;;;;10.00;8.17;;;;;;;;;;5076323;28;20448;-72
2022/06/07 03:40:59;;;;;;;11.60;7.90;;;;;;;;;;5076141;28;20837;-72
2022/06/07 03:43:26;;;;;;;9.47;8.47;;;;;;;;;;5076031;28;20454;-72
2022/06/07 03:45:53;;;;;;;12.77;10.80;;;;;;;;;;5076020;28;20452;-72
2022/06/07 03:48:21;;;;;;;14.83;12.03;;;;;;;;;;5076024;28;20504;-72
2022/06/07 03:50:48;;;;;;;13.23;9.60;;;;;;;;;;5075983;28;20468;-71
2022/06/07 03:53:17;;;;;;;9.30;8.17;;;;;;;;;;5075415;28;20489;-72
2022/06/07 03:55:47;;;;;;;15.33;9.50;;;;;;;;;;5075810;28;20455;-72
2022/06/07 03:58:14;;;;;;;12.40;8.17;;;;;;;;;;5076018;28;20914;-72
2022/06/07 04:00:41;;;;;;;10.70;8.17;;;;;;;;;;5075775;28;20471;-72
2022/06/07 04:03:09;;;;;;;8.30;7.50;;;;;;;;;;5075777;28;20459;-72
2022/06/07 04:05:40;;;;;;;8.20;7.17;;;;;;;;;;5075597;28;20455;-72
2022/06/07 04:08:13;;;;;;;8.47;7.57;;;;;;;;;;5075899;28;20991;-72
2022/06/07 04:10:49;;;;;;;9.03;7.13;;;;;;;;;;5075632;28;20482;-72
2022/06/07 04:13:17;;;;;;;8.70;7.57;;;;;;;;;;5075571;28;20451;-72
2022/06/07 04:15:44;;;;;;;7.83;6.87;;;;;;;;;;5075444;28;20492;-72
2022/06/07 04:18:12;;;;;;;8.33;7.53;;;;;;;;;;5075566;28;20451;-72
2022/06/07 04:20:39;;;;;;;10.20;6.50;;;;;;;;;;5075412;28;20463;-72
2022/06/07 04:23:07;;;;;;;6.83;6.03;;;;;;;;;;5075441;28;20448;-72
2022/06/07 04:25:35;;;;;;;8.60;6.87;;;;;;;;;;5075218;28;20466;-72
2022/06/07 04:28:04;;;;;;;7.33;6.63;;;;;;;;;;5075368;28;20491;-72
2022/06/07 04:30:31;;;;;;;8.47;6.83;;;;;;;;;;5075245;28;20475;-72
2022/06/07 04:32:58;;;;;;;7.63;6.77;;;;;;;;;;5075423;28;20464;-72
2022/06/07 04:35:26;;;;;;;9.53;7.63;;;;;;;;;;5074949;28;20452;-72
2022/06/07 04:37:54;;;;;;;7.07;6.37;;;;;;;;;;5075278;28;20466;-72
2022/06/07 04:40:21;;;;;;;8.73;6.90;;;;;;;;;;5074985;28;20996;-70
2022/06/07 04:42:48;;;;;;;10.03;7.30;;;;;;;;;;5075126;28;20444;-70
2022/06/07 04:45:17;;;;;;;7.90;7.00;;;;;;;;;;5074839;28;20820;-70
2022/06/07 04:47:44;;;;;;;8.90;8.00;;;;;;;;;;5074586;28;20492;-70
2022/06/07 04:50:13;;;;;;;8.93;7.50;;;;;;;;;;5074889;28;20475;-70
2022/06/07 04:52:40;;;;;;;8.80;7.00;;;;;;;;;;5074581;28;20459;-70
2022/06/07 04:55:07;;;;;;;9.33;6.47;;;;;;;;;;5074637;28;20841;-70
2022/06/07 04:57:34;;;;;;;9.63;6.30;;;;;;;;;;5074808;28;20471;-70
2022/06/07 05:00:01;;;;;;;7.83;6.90;;;;;;;;;;5074663;28;20472;-69
2022/06/07 05:02:30;;;;;;;7.10;6.40;;;;;;;;;;5074570;28;20509;-70
2022/06/07 05:04:58;;;;;;;7.50;6.80;;;;;;;;;;5074493;28;20941;-72
2022/06/07 05:07:25;;;;;;;6.87;6.27;;;;;;;;;;5074508;28;20443;-72
2022/06/07 05:09:52;;;;;;;6.63;6.03;;;;;;;;;;5074498;28;20443;-70
2022/06/07 05:12:19;;;;;;;8.00;7.20;;;;;;;;;;5074412;28;20858;-70
2022/06/07 05:14:47;;;;;;;8.53;6.40;;;;;;;;;;5074452;28;20456;-72
2022/06/07 05:17:15;;;;;;;9.03;7.00;;;;;;;;;;5074199;28;20458;-71
2022/06/07 05:19:43;;;;;;;8.77;6.43;;;;;;;;;;5074402;28;20444;-71
2022/06/07 05:22:10;;;;;;;7.10;6.40;;;;;;;;;;5074381;28;20825;-72
2022/06/07 05:24:37;;;;;;;7.07;5.80;;;;;;;;;;5074197;28;20448;-72
2022/06/07 05:27:05;;;;;;;7.93;6.33;;;;;;;;;;5074078;28;20448;-72
2022/06/07 05:29:34;;;;;;;7.97;6.60;;;;;;;;;;5073992;28;20491;-72
2022/06/07 05:32:01;;;;;;;8.57;7.20;;;;;;;;;;5073907;28;20491;-72
2022/06/07 05:34:28;;;;;;;8.70;7.00;;;;;;;;;;5073872;28;20829;-72
2022/06/07 05:36:57;;;;;;;10.27;7.00;;;;;;;;;;5073913;28;20466;-72
2022/06/07 05:39:25;;;;;;;6.73;6.07;;;;;;;;;;5073963;28;20959;-72
2022/06/07 05:41:52;;;;;;;7.97;7.17;;;;;;;;;;5073912;28;20479;-72
2022/06/07 05:44:20;;;;;;;7.50;5.70;;;;;;;;;;5073535;28;20463;-72
2022/06/07 05:46:48;;;;;;;6.83;6.20;;;;;;;;;;5073736;28;20448;-72
2022/06/07 05:49:15;;;;;;;7.83;7.03;;;;;;;;;;5073765;28;21008;-72
2022/06/07 05:51:42;;;;;;;7.43;6.70;;;;;;;;;;5073607;28;20467;-72
2022/06/07 05:54:11;;;;;;;7.77;7.07;;;;;;;;;;5073495;28;20451;-72
2022/06/07 05:56:38;;;;;;;9.13;6.43;;;;;;;;;;5073728;28;20952;-72
2022/06/07 05:59:06;;;;;;;9.30;7.33;;;;;;;;;;5072670;28;20444;-72
2022/06/07 06:01:33;;;;;;;8.23;6.57;;;;;;;;;;5073591;28;20567;-72
2022/06/07 06:04:03;;;;;;;7.40;6.70;;;;;;;;;;5073436;28;20833;-72
2022/06/07 06:06:30;;;;;;;7.07;6.33;;;;;;;;;;5073533;28;20543;-71
2022/06/07 06:11:47;;;;;;;9.70;7.87;;;;;;;;;;5047454;28;20454;-71
2022/06/07 06:14:14;;;;;;;9.47;6.97;;;;;;;;;;5073307;28;20451;-72
2022/06/07 06:16:41;;;;;;;8.90;7.00;;;;;;;;;;5073449;28;20440;-72
2022/06/07 06:19:08;;;;;;;7.50;6.80;;;;;;;;;;5073461;28;20929;-72
2022/06/07 06:21:36;;;;;;;8.73;7.37;;;;;;;;;;5073433;28;20474;-72
2022/06/07 06:24:03;;;;;;;8.90;7.70;;;;;;;;;;5073143;28;20894;-72
2022/06/07 06:26:31;;;;;;;7.03;6.40;;;;;;;;;;5073114;28;20475;-72
2022/06/07 06:28:59;;;;;;;10.47;6.27;;;;;;;;;;5073066;28;20487;-72
2022/06/07 06:31:27;;;;;;;7.40;6.70;;;;;;;;;;5073086;28;20478;-72
2022/06/07 06:33:55;;;;;;;6.63;5.80;;;;;;;;;;5072938;28;20451;-72
2022/06/07 06:36:24;;;;;;;5.50;4.93;;;;;;;;;;5072860;28;20470;-72
2022/06/07 06:38:51;;;;;;;5.03;4.63;;;;;;;;;;5072972;28;20448;-72
2022/06/07 06:41:20;;;;;;;8.30;5.07;;;;;;;;;;5073132;28;20479;-72
2022/06/07 06:43:47;;;;;;;5.20;4.70;;;;;;;;;;5072996;28;20448;-72
2022/06/07 06:46:17;;;;;;;5.03;4.43;;;;;;;;;;5073145;28;20460;-72
2022/06/07 06:48:44;;;;;;;5.63;5.13;;;;;;;;;;5072954;28;20573;-72
2022/06/07 06:51:16;;;;;;;5.80;5.30;;;;;;;;;;5072669;28;20483;-72
2022/06/07 06:53:43;;;;;;;6.73;4.83;;;;;;;;;;5073209;28;20898;-72
2022/06/07 06:56:11;;;;;;;5.93;4.57;;;;;;;;;;5072976;28;20459;-72
2022/06/07 06:58:38;;;;;;;5.73;5.23;;;;;;;;;;5072769;28;20451;-72
2022/06/07 07:01:08;;;;;;;5.43;4.93;;;;;;;;;;5072940;28;20479;-72
2022/06/07 07:03:37;;;;;;;6.43;5.80;;;;;;;;;;5072960;28;20455;-72
2022/06/07 07:06:05;;;;;;;7.10;6.10;;;;;;;;;;5072948;28;21016;-72
2022/06/07 07:08:32;;;;;;;5.20;4.70;;;;;;;;;;5072630;28;20484;-72
2022/06/07 07:11:03;;;;;;;4.57;4.17;;;;;;;;;;5075923;28;20471;-72
2022/06/07 07:13:30;;;;;;;5.03;3.63;;;;;;;;;;5076708;28;20448;-72
2022/06/07 07:15:58;;;;;;;4.80;4.40;;;;;;;;;;5076991;28;20856;-72
2022/06/07 07:18:25;;;;;;;8.90;4.30;;;;;;;;;;5076774;28;20448;-72
2022/06/07 07:20:54;;;;;;;4.63;4.23;;;;;;;;;;5076607;28;20482;-72
2022/06/07 07:23:22;;;;;;;4.17;3.77;;;;;;;;;;5076630;28;20458;-72
2022/06/07 07:25:49;;;;;;;6.57;5.97;;;;;;;;;;5076548;28;20451;-72
2022/06/07 07:28:17;;;;;;;4.70;4.13;;;;;;;;;;5076491;28;21003;-72
2022/06/07 07:30:44;;;;;;;6.43;4.60;;;;;;;;;;5076463;28;20494;-72
2022/06/07 07:33:11;;;;;;;5.97;4.67;;;;;;;;;;5076471;28;20447;-72
2022/06/07 07:35:38;;;;;;;3.90;3.60;;;;;;;;;;5076183;28;20831;-72
2022/06/07 07:38:07;;;;;;;5.17;4.33;;;;;;;;;;5076356;28;20451;-72
2022/06/07 07:40:34;;;;;;;7.43;5.50;;;;;;;;;;5076291;28;20890;-72
2022/06/07 07:43:01;;;;;;;4.33;3.93;;;;;;;;;;5076160;28;20452;-72
2022/06/07 07:45:29;;;;;;;4.07;3.30;;;;;;;;;;5076357;28;20929;-72
2022/06/07 07:47:56;;;;;;;3.73;3.43;;;;;;;;;;5076163;28;20547;-72
2022/06/07 07:50:24;;;;;;;3.53;3.20;;;;;;;;;;5075757;28;20869;-72
2022/06/07 07:52:51;;;;;;;3.50;3.13;;;;;;;;;;5075851;28;20835;-72
2022/06/07 07:55:20;;;;;;;3.83;3.03;;;;;;;;;;5076191;28;20440;-72
2022/06/07 07:57:47;;;;;;;3.57;2.90;;;;;;;;;;5076010;28;20952;-72
2022/06/07 08:00:14;;;;;;;4.00;3.17;;;;;;;;;;5075987;28;20471;-72
2022/06/07 08:02:42;;;;;;;6.40;3.33;;;;;;;;;;5075848;28;20452;-72
2022/06/07 08:05:09;;;;;;;3.63;3.30;;;;;;;;;;5075749;28;20492;-72
2022/06/07 08:07:37;;;;;;;3.00;2.70;;;;;;;;;;5076116;28;20455;-72
2022/06/07 08:10:05;;;;;;;2.80;2.50;;;;;;;;;;5075746;28;21043;-72
2022/06/07 08:12:33;;;;;;;5.83;3.67;;;;;;;;;;5075712;28;20460;-72
2022/06/07 08:15:01;;;;;;;4.60;2.50;;;;;;;;;;5075570;28;20451;-72
2022/06/07 08:17:28;;;;;;;3.40;2.73;;;;;;;;;;5075553;28;20452;-72
2022/06/07 08:19:55;;;;;;;2.97;2.70;;;;;;;;;;5075676;28;20447;-72
2022/06/07 08:22:22;;;;;;;4.40;4.00;;;;;;;;;;5074629;28;20452;-72
2022/06/07 08:24:49;;;;;;;6.10;3.13;;;;;;;;;;5075273;28;20956;-72
2022/06/07 08:27:17;;;;;;;2.87;2.67;;;;;;;;;;5075274;28;20452;-72
2022/06/07 08:29:45;;;;;;;7.23;2.70;;;;;;;;;;5075088;28;20487;-71
2022/06/07 08:32:12;;;;;;;2.90;2.60;;;;;;;;;;5075184;28;20452;-71
2022/06/07 08:37:38;;;;;;;10.00;3.43;;;;;;;;;;5075043;28;20443;-72
2022/06/07 08:40:06;;;;;;;4.17;3.77;;;;;;;;;;5075184;28;20877;-72
2022/06/07 08:42:34;;;;;;;4.40;3.60;;;;;;;;;;5075283;28;20458;-72
2022/06/07 08:45:05;;;;;;;3.60;2.93;;;;;;;;;;5074963;28;20478;-72
2022/06/07 08:47:34;;;;;;;5.43;3.93;;;;;;;;;;5074989;28;20473;-72
2022/06/07 08:50:05;;;;;;;3.90;3.50;;;;;;;;;;5074765;28;20541;-72
2022/06/07 08:52:34;;;;;;;3.27;2.97;;;;;;;;;;5074663;28;20952;-72
2022/06/07 08:55:02;;;;;;;3.13;2.83;;;;;;;;;;5074761;28;20455;-72
2022/06/07 08:57:30;;;;;;;4.63;3.57;;;;;;;;;;5074858;28;20537;-72
2022/06/07 09:00:02;;;;;;;3.97;3.20;;;;;;;;;;5074748;28;20440;-72
2022/06/07 09:02:37;;;;;;;4.60;3.13;;;;;;;;;;5074631;28;20538;-72
2022/06/07 09:05:04;;;;;;;3.27;2.97;;;;;;;;;;5074561;28;20824;-72
2022/06/07 09:07:31;;;;;;;3.30;3.00;;;;;;;;;;5074599;28;20957;-72
2022/06/07 09:12:57;;;;;;;2.97;2.67;;;;;;;;;;5074524;28;20418;-72
2022/06/07 09:15:26;;;;;;;5.30;3.03;;;;;;;;;;5074381;28;20447;-72
2022/06/07 09:17:58;;;;;;;2.77;2.57;;;;;;;;;;5074476;28;20455;-72
2022/06/07 09:20:27;;;;;;;6.33;3.03;;;;;;;;;;5074301;28;20814;-72
2022/06/07 09:22:57;;;;;;;3.17;2.87;;;;;;;;;;5074384;28;20460;-72
2022/06/07 09:25:27;;;;;;;3.17;2.87;;;;;;;;;;5074063;28;20964;-72
2022/06/07 09:27:56;;;;;;;3.73;2.90;;;;;;;;;;5074401;28;20820;-72
2022/06/07 09:30:25;;;;;;;3.63;3.33;;;;;;;;;;5073976;28;20495;-72
2022/06/07 09:32:53;;;;;;;4.20;3.13;;;;;;;;;;5074137;28;20452;-72
2022/06/07 09:35:24;;;;;;;3.13;2.83;;;;;;;;;;5073829;28;20463;-72
2022/06/07 09:37:54;;;;;;;4.00;3.37;;;;;;;;;;5074085;28;20964;-72
2022/06/07 09:40:25;;;;;;;4.90;3.37;;;;;;;;;;5074024;28;20467;-72
2022/06/07 09:42:53;;;;;;;4.10;3.50;;;;;;;;;;5074025;28;20448;-72
2022/06/07 09:45:23;;;;;;;3.70;3.40;;;;;;;;;;5073606;28;20454;-72
2022/06/07 09:47:50;;;;;;;4.80;3.67;;;;;;;;;;5073924;28;20458;-72
2022/06/07 09:50:20;;;;;;;10.07;4.20;;;;;;;;;;5073538;28;20541;-72
2022/06/07 09:52:50;;;;;;;3.87;3.30;;;;;;;;;;5073398;28;20451;-72
2022/06/07 09:55:22;;;;;;;3.60;3.30;;;;;;;;;;5073485;28;20448;-72
2022/06/07 09:57:53;;;;;;;4.60;4.20;;;;;;;;;;5073633;28;20459;-72
2022/06/07 10:00:22;;;;;;;4.20;3.67;;;;;;;;;;5073525;28;20463;-72
2022/06/07 10:03:14;;;;;;;3.90;3.60;;;;;;;;;;5073478;28;20448;-72
2022/06/07 10:05:43;;;;;;;4.07;3.63;;;;;;;;;;5063118;28;20835;-72
2022/06/07 10:08:17;;;;;;;5.27;4.40;;;;;;;;;;5073520;28;20444;-72
2022/06/07 10:10:47;;;;;;;4.83;4.43;;;;;;;;;;5073225;28;20487;-72
2022/06/07 10:13:21;;;;;;;5.10;3.90;;;;;;;;;;5073384;28;21007;-72
2022/06/07 10:15:51;;;;;;;4.83;3.90;;;;;;;;;;5073488;28;20452;-72
2022/06/07 10:18:23;;;;;;;3.97;3.50;;;;;;;;;;5073379;28;20456;-72
2022/06/07 10:21:04;;;;;;;4.20;3.73;;;;;;;;;;5073285;28;20467;-71
2022/06/07 10:23:47;;;;;;;4.40;3.70;;;;;;;;;;5073411;28;20933;-72
2022/06/07 10:26:23;;;;;;;3.73;3.43;;;;;;;;;;5073308;28;20807;-72
2022/06/07 10:28:59;;;;;;;4.30;3.40;;;;;;;;;;5073220;28;20452;-72
2022/06/07 10:31:35;;;;;;;3.70;3.10;;;;;;;;;;5073176;28;20507;-72
2022/06/07 10:34:04;;;;;;;4.53;4.10;;;;;;;;;;5072956;28;20458;-72
2022/06/07 10:36:36;;;;;;;3.70;3.40;;;;;;;;;;5073094;28;20953;-72
2022/06/07 10:39:09;;;;;;;4.03;3.63;;;;;;;;;;5073124;28;20454;-72
2022/06/07 10:41:43;;;;;;;3.50;3.20;;;;;;;;;;5073158;28;20503;-72
2022/06/07 10:44:29;;;;;;;4.20;3.83;;;;;;;;;;5072910;28;20454;-72
2022/06/07 10:46:57;;;;;;;3.50;3.20;;;;;;;;;;5073139;28;20488;-73
2022/06/07 10:49:26;;;;;;;3.67;3.37;;;;;;;;;;5073084;28;20562;-71
2022/06/07 10:54:48;;;;;;;3.80;3.50;;;;;;;;;;5073082;28;20423;-71
2022/06/07 10:57:21;;;;;;;4.07;3.67;;;;;;;;;;5073331;28;20455;-72
2022/06/07 10:59:51;;;;;;;4.20;2.93;;;;;;;;;;5073370;28;20487;-72
2022/06/07 11:02:24;;;;;;;4.17;2.97;;;;;;;;;;5073353;28;20456;-73
2022/06/07 11:10:31;;;;;;;3.80;3.50;;;;;;;;;;5072933;28;20617;-72
2022/06/07 11:13:02;;;;;;;4.10;3.03;;;;;;;;;;5073119;28;20470;-72
2022/06/07 11:15:35;;;;;;;3.50;3.27;;;;;;;;;;5072782;28;20528;-71
2022/06/07 11:18:05;;;;;;;3.20;2.90;;;;;;;;;;5072952;28;20499;-71
2022/06/07 11:20:37;;;;;;;3.27;2.97;;;;;;;;;;5072941;28;20472;-71
2022/06/07 11:23:09;;;;;;;3.80;3.50;;;;;;;;;;5072846;28;20490;-71
2022/06/07 11:25:38;;;;;;;3.70;2.93;;;;;;;;;;5072747;28;20501;-72
2022/06/07 11:28:12;;;;;;;2.80;2.50;;;;;;;;;;5072677;28;20534;-72
2022/06/07 11:30:47;;;;;;;3.30;3.00;;;;;;;;;;5072802;28;20527;-72
2022/06/07 11:33:44;;;;;;;5.23;2.57;;;;;;;;;;5072615;28;20454;-72
2022/06/07 11:36:31;;;;;;;2.37;2.17;;;;;;;;;;5030508;28;20457;-72
2022/06/07 11:39:00;;;;;;;2.30;2.10;;;;;;;;;;5068525;28;20470;-71
2022/06/07 11:41:44;;;;;;;3.23;2.30;;;;;;;;;;5072471;28;20470;-71
2022/06/07 11:44:30;;;;;;;2.63;1.90;;;;;;;;;;5072267;28;20450;-71
2022/06/07 11:46:59;;;;;;;2.57;2.37;;;;;;;;;;5072926;28;20965;-71
2022/06/07 11:49:34;;;;;;;2.40;2.20;;;;;;;;;;5072497;28;20896;-71
2022/06/07 11:52:02;;;;;;;2.60;2.40;;;;;;;;;;5072146;28;20884;-71
2022/06/07 11:54:31;;;;;;;3.17;2.87;;;;;;;;;;5072711;28;20450;-71
2022/06/07 11:56:59;;;;;;;6.77;6.00;;;;;;;;;;5073466;28;20447;-71
2022/06/07 11:59:35;;;;;;;2.77;2.57;;;;;;;;;;5075791;28;20448;-71
2022/06/07 12:02:22;;;;;;;3.30;3.00;;;;;;;;;;5076004;28;20521;-71
2022/06/07 12:04:57;;;;;;;2.97;2.73;;;;;;;;;;5075778;28;20474;-71
2022/06/07 12:07:32;;;;;;;2.97;2.67;;;;;;;;;;5075792;28;20463;-71
2022/06/07 12:10:01;;;;;;;3.13;2.93;;;;;;;;;;5075780;28;20876;-71
2022/06/07 12:12:31;;;;;;;3.13;2.90;;;;;;;;;;5075676;28;20813;-71
2022/06/07 12:15:05;;;;;;;4.00;3.67;;;;;;;;;;5075660;28;20452;-71
2022/06/07 12:17:32;;;;;;;5.00;3.97;;;;;;;;;;5075577;28;20447;-71
2022/06/07 12:20:00;;;;;;;3.47;3.10;;;;;;;;;;5075381;28;20490;-71
2022/06/07 12:22:30;;;;;;;3.10;2.80;;;;;;;;;;5075266;28;20456;-71
2022/06/07 12:24:58;;;;;;;3.00;2.70;;;;;;;;;;5075318;28;20956;-71
2022/06/07 12:27:30;;;;;;;3.17;2.87;;;;;;;;;;5075261;28;20450;-71
2022/06/07 12:30:01;;;;;;;2.47;2.27;;;;;;;;;;5075161;28;20541;-71
2022/06/07 12:32:31;;;;;;;3.90;2.60;;;;;;;;;;5075390;28;20534;-71
2022/06/07 12:35:19;;;;;;;3.73;3.40;;;;;;;;;;5075081;28;20481;-72
2022/06/07 12:37:47;;;;;;;3.50;3.20;;;;;;;;;;5071891;28;20829;-71
2022/06/07 12:40:38;;;;;;;6.10;3.10;;;;;;;;;;5074960;28;20475;-71
2022/06/07 12:43:05;;;;;;;3.30;2.97;;;;;;;;;;5064543;28;20455;-71
2022/06/07 12:45:34;;;;;;;5.77;3.70;;;;;;;;;;5074840;28;20448;-71
2022/06/07 12:48:08;;;;;;;4.53;4.10;;;;;;;;;;5075023;28;20801;-71
2022/06/07 12:50:37;;;;;;;4.90;4.40;;;;;;;;;;5074760;28;20487;-71
2022/06/07 12:53:04;;;;;;;3.83;3.40;;;;;;;;;;5074358;28;20550;-71
2022/06/07 12:55:33;;;;;;;4.50;4.10;;;;;;;;;;5074772;28;20473;-71
2022/06/07 12:58:02;;;;;;;4.90;4.50;;;;;;;;;;5074857;28;20456;-71
2022/06/07 13:00:31;;;;;;;6.07;4.27;;;;;;;;;;5074642;28;20456;-71
2022/06/07 13:03:00;;;;;;;5.27;4.80;;;;;;;;;;5074825;28;20483;-71
2022/06/07 13:05:30;;;;;;;5.53;5.03;;;;;;;;;;5074469;28;20447;-71
2022/06/07 13:07:58;;;;;;;4.70;4.30;;;;;;;;;;5074335;28;20459;-71
2022/06/07 13:10:27;;;;;;;4.97;4.57;;;;;;;;;;5074375;28;20494;-71
2022/06/07 13:12:55;;;;;;;5.70;5.10;;;;;;;;;;5074571;28;20513;-71
2022/06/07 13:15:24;;;;;;;6.70;6.00;;;;;;;;;;5074281;28;20954;-71
2022/06/07 13:17:56;;;;;;;6.23;5.63;;;;;;;;;;5074371;28;20455;-71
2022/06/07 13:20:26;;;;;;;5.80;5.30;;;;;;;;;;5074339;28;20472;-71
2022/06/07 13:22:55;;;;;;;4.87;4.47;;;;;;;;;;5074535;28;20498;-71
2022/06/07 13:25:26;;;;;;;5.83;5.33;;;;;;;;;;5074076;28;20455;-71
2022/06/07 13:28:01;;;;;;;5.37;4.87;;;;;;;;;;5074479;28;20452;-71
2022/06/07 13:30:30;;;;;;;8.90;7.07;;;;;;;;;;5074121;28;21014;-71
2022/06/07 13:33:12;;;;;;;5.37;4.87;;;;;;;;;;5074140;28;20447;-71
2022/06/07 13:35:43;;;;;;;5.70;5.20;;;;;;;;;;5073848;28;20448;-71
2022/06/07 13:38:28;;;;;;;7.10;6.40;;;;;;;;;;5074218;28;21076;-71
2022/06/07 13:41:05;;;;;;;5.83;5.33;;;;;;;;;;5074007;28;20837;-71
2022/06/07 13:43:32;;;;;;;8.20;7.40;;;;;;;;;;5073938;28;20554;-71
2022/06/07 13:46:03;;;;;;;7.20;6.50;;;;;;;;;;5073907;28;20483;-71
2022/06/07 13:54:02;;;;;;;5.57;4.97;;;;;;;;;;5039834;28;20436;-71
2022/06/07 13:56:29;;;;;;;8.30;5.10;;;;;;;;;;5073648;28;20469;-71
2022/06/07 13:58:59;;;;;;;10.20;5.93;;;;;;;;;;5073632;28;20494;-71
2022/06/07 14:01:27;;;;;;;19.73;7.27;;;;;;;;;;5073579;28;20471;-71
2022/06/07 14:03:56;;;;;;;9.17;5.87;;;;;;;;;;5073608;28;20451;-71
2022/06/07 14:06:25;;;;;;;8.67;5.83;;;;;;;;;;5073400;28;20443;-71
2022/06/07 14:08:53;;;;;;;7.90;4.90;;;;;;;;;;5073453;28;20447;-71
2022/06/07 14:11:21;;;;;;;7.83;5.00;;;;;;;;;;5073278;28;20488;-71
2022/06/07 14:13:49;;;;;;;8.93;5.43;;;;;;;;;;5073272;28;20941;-71
2022/06/07 14:16:17;;;;;;;9.00;5.77;;;;;;;;;;5073377;28;20463;-71
2022/06/07 14:18:45;;;;;;;11.03;5.60;;;;;;;;;;5073162;28;20452;-71
2022/06/07 14:21:13;;;;;;;5.90;4.23;;;;;;;;;;5072822;28;20483;-71
2022/06/07 14:23:40;;;;;;;6.83;4.30;;;;;;;;;;5073137;28;20455;-71
2022/06/07 14:26:07;;;;;;;5.03;4.53;;;;;;;;;;5073271;28;20452;-71
2022/06/07 14:28:36;;;;;;;5.03;4.53;;;;;;;;;;5073366;28;20823;-71
2022/06/07 14:31:03;;;;;;;4.40;4.00;;;;;;;;;;5072994;28;20506;-71
2022/06/07 14:33:30;;;;;;;4.80;3.97;;;;;;;;;;5072901;28;20451;-71
2022/06/07 14:35:58;;;;;;;5.13;4.37;;;;;;;;;;5073099;28;20471;-71
2022/06/07 14:38:26;;;;;;;4.57;4.17;;;;;;;;;;5073196;28;20456;-71
2022/06/07 14:40:54;;;;;;;5.10;4.53;;;;;;;;;;5073129;28;20807;-71
2022/06/07 14:43:22;;;;;;;4.60;4.20;;;;;;;;;;5072926;28;20460;-72
2022/06/07 14:45:54;;;;;;;4.33;4.03;;;;;;;;;;5072906;28;20953;-71
2022/06/07 14:48:38;;;;;;;5.33;4.83;;;;;;;;;;5072861;28;20959;-72
2022/06/07 14:51:07;;;;;;;5.77;5.13;;;;;;;;;;5071452;28;20582;-72
2022/06/07 14:53:34;;;;;;;5.73;5.23;;;;;;;;;;5072898;28;20452;-72
2022/06/07 14:56:01;;;;;;;8.80;7.90;;;;;;;;;;5072830;28;20457;-71
2022/06/07 14:58:28;;;;;;;6.93;6.40;;;;;;;;;;5072954;28;20963;-71
2022/06/07 15:00:56;;;;;;;6.60;5.90;;;;;;;;;;5073029;28;20463;-71
2022/06/07 15:03:24;;;;;;;6.53;5.93;;;;;;;;;;5072799;28;20933;-72
2022/06/07 15:05:55;;;;;;;5.90;5.37;;;;;;;;;;5072702;28;20547;-71
2022/06/07 15:08:23;;;;;;;9.10;7.60;;;;;;;;;;5072814;28;20941;-71
2022/06/07 15:10:51;;;;;;;8.40;7.60;;;;;;;;;;5072658;28;20492;-71
2022/06/07 15:13:22;;;;;;;7.40;6.70;;;;;;;;;;5072598;28;20451;-72
2022/06/07 15:15:49;;;;;;;6.60;6.00;;;;;;;;;;5072492;28;20513;-71
2022/06/07 15:18:18;;;;;;;10.47;6.60;;;;;;;;;;5072657;28;20821;-71
2022/06/07 15:20:46;;;;;;;9.50;7.73;;;;;;;;;;5072569;28;20834;-71
2022/06/07 15:23:15;;;;;;;8.03;6.43;;;;;;;;;;5072441;28;20487;-72